WetterOnline ( https://www.wetteronline.de )

Wetter aktuell Estepona

Aktuelles Wetter: Gibraltar (5m)

6-stündlich | Neueste Meldungen
Ortszeit Temperatur Wetter
Di, 21.09. 2:00 21.0° C bedeckt
Mo, 20.09. 20:00 23.8° C fast wolkenlos
Mo, 20.09. 14:00 24.4° C fast wolkenlos
Mo, 20.09. 8:00 21.2° C wolkig
Mo, 20.09. 2:00 20.5° C wolkig
So, 19.09. 20:00 20.9° C fast wolkenlos
So, 19.09. 14:00 27.1° C fast wolkenlos
So, 19.09. 8:00 20.0° C wolkenlos
Ortszeit Temperatur Wetter
Di, 21.09. 8:00 20.1° C Nebel (abnehmend)
Di, 21.09. 7:50 20° C Nebel
Di, 21.09. 7:00 20.2° C Nebel (abnehmend)
Di, 21.09. 6:50 20° C Nebel
Di, 21.09. 6:00 20.7° C wolkig
Di, 21.09. 5:50 21° C bewölkt
Di, 21.09. 5:00 20.4° C bewölkt
Di, 21.09. 4:50 20° C bewölkt
Di, 21.09. 4:00 20.8° C bewölkt
Ortszeit Relative Feuchte Sichtweite
Di, 21.09. 2:00 95% 5.0 km
Mo, 20.09. 20:00 84% 12 km
Mo, 20.09. 14:00 77% 20 km
Mo, 20.09. 8:00 82% 20 km
Mo, 20.09. 2:00 97% 9 km
So, 19.09. 20:00 76% 30 km
So, 19.09. 14:00 49% 40 km
So, 19.09. 8:00 65% 40 km
Ortszeit Relative Feuchte Sichtweite
Di, 21.09. 8:00 96% 0.7 km
Di, 21.09. 7:50 100% 0.7 km
Di, 21.09. 7:00 94% 0.3 km
Di, 21.09. 6:50 94% 0.3 km
Di, 21.09. 6:00 93% 15 km
Di, 21.09. 5:50 94% >10 km
Di, 21.09. 5:00 94% 9 km
Di, 21.09. 4:50 94% 9 km
Di, 21.09. 4:00 95% 7 km
Ortszeit Niederschlagsmenge Niederschlagsart
Di, 21.09. 2:00 0.0 l/m2 in 6 Std. -
Mo, 20.09. 20:00 0.0 l/m2 in 12 Std. -
Mo, 20.09. 14:00 0.0 l/m2 in 6 Std. -
Mo, 20.09. 8:00 0.1 l/m2 in 12 Std. -
Mo, 20.09. 2:00 0.1 l/m2 in 6 Std. -
So, 19.09. 20:00 0.0 l/m2 in 12 Std. -
So, 19.09. 14:00 0.0 l/m2 in 6 Std. -
So, 19.09. 8:00 0.0 l/m2 in 12 Std. -
Ortszeit Niederschlagsmenge Niederschlagsart
Di, 21.09. 8:00 keine Meldung -
Di, 21.09. 7:50 keine Meldung -
Di, 21.09. 7:00 keine Meldung -
Di, 21.09. 6:50 keine Meldung -
Di, 21.09. 6:00 keine Meldung -
Di, 21.09. 5:50 keine Meldung -
Di, 21.09. 5:00 keine Meldung -
Di, 21.09. 4:50 keine Meldung -
Di, 21.09. 4:00 keine Meldung -
Ortszeit Stärke Spitze Richtung
km/h Bft. km/h Grad Sektor
Di, 21.09. 2:00 4 1 - 70° O
Mo, 20.09. 20:00 15 3 - 110° O
Mo, 20.09. 14:00 11 2 - 90° O
Mo, 20.09. 8:00 7 2 - 80° O
Mo, 20.09. 2:00 6 1 - 50° NO
So, 19.09. 20:00 11 2 - 90° O
So, 19.09. 14:00 11 2 - 200° S
So, 19.09. 8:00 13 3 - 240° SW
Ortszeit Stärke Spitze Richtung
km/h Bft. km/h Grad Sektor
Di, 21.09. 8:00 11 2 - 50° NO
Di, 21.09. 7:50 11 2 - 50° NO
Di, 21.09. 7:00 11 2 - 80° O
Di, 21.09. 6:50 11 2 - 80° O
Di, 21.09. 6:00 6 1 - 70° O
Di, 21.09. 5:50 6 1 - 70° O
Di, 21.09. 5:00 9 2 - 60° NO
Di, 21.09. 4:50 9 2 - 60° NO
Di, 21.09. 4:00 13 3 - 60° NO
Ortszeit Untergrenze Bedeckung Gattung
total tief tief mittel hoch
Di, 21.09. 2:00 60 m - 8/8 - - -
Mo, 20.09. 20:00 300 m 1/8 1/8 St - -
Mo, 20.09. 14:00 420 m 1/8 1/8 St - -
Mo, 20.09. 8:00 180 m 6/8 6/8 Sc - -
Mo, 20.09. 2:00 30 m - 6/8 - - -
So, 19.09. 20:00 9000 m 1/8 0/8 - - Ci
So, 19.09. 14:00 1500 m 1/8 1/8 Cu - Ci
So, 19.09. 8:00 - 0/8 0/8 - - -
Ortszeit Bedeckungsgrad in Achtel und Wolkenuntergrenze
Di, 21.09. 8:00 8(30m)
Di, 21.09. 7:50 8(30m)
Di, 21.09. 7:00 8(30m)
Di, 21.09. 6:50 8(30m)
Di, 21.09. 6:00 2(90m) 6(750m)
Di, 21.09. 5:50 1-2(90m) 5-7(750m)
Di, 21.09. 5:00 1(60m) 3(360m) 7(630m)
Di, 21.09. 4:50 1-2(60m) 3-4(360m) 5-7(630m)
Di, 21.09. 4:00 7(60m)
Ortszeit Luftdruck NN (hPa) Tendenz (hPa in 3 Std.)
Di, 21.09. 2:00 1017 - 0,2
Mo, 20.09. 20:00 1016 - 0,8
Mo, 20.09. 14:00 1018 - 0,8
Mo, 20.09. 8:00 1018 + 0,2
Mo, 20.09. 2:00 1019 + 0,4
So, 19.09. 20:00 1017 + 0,8
So, 19.09. 14:00 1017 - 0,4
So, 19.09. 8:00 1016 + 0,8
Ortszeit Luftdruck NN (hPa) Tendenz (hPa in 3 Std.)
Di, 21.09. 8:00 1016 0,0
Di, 21.09. 7:50 1015 keine Meldung
Di, 21.09. 7:00 1015 - 0,9
Di, 21.09. 6:50 1015 keine Meldung
Di, 21.09. 6:00 1015 - 1,2
Di, 21.09. 5:50 1015 keine Meldung
Di, 21.09. 5:00 1016 - 1,3
Di, 21.09. 4:50 1015 keine Meldung
Di, 21.09. 4:00 1016 - 1,2
Ortszeit Schneehöhe (cm)
Di, 21.09. 2:00 -
Mo, 20.09. 20:00 -
Mo, 20.09. 14:00 -
Mo, 20.09. 8:00 0
Mo, 20.09. 2:00 -
So, 19.09. 20:00 -
So, 19.09. 14:00 -
So, 19.09. 8:00 0
Ortszeit Schneehöhe (cm)
Di, 21.09. 8:00 0
Di, 21.09. 7:50 -
Di, 21.09. 7:00 -
Di, 21.09. 6:50 -
Di, 21.09. 6:00 -
Di, 21.09. 5:50 -
Di, 21.09. 5:00 -
Di, 21.09. 4:50 -
Di, 21.09. 4:00 -
Link zu dieser Seite / Seite empfehlen

Das Wetter in ...